Nearby METAR Reports

 

KFRG - , , USA
Distance from station: SSW 12mi, 20km
Updated: 07/30/2021 6:53am
Clear
Clear
 Wind from NW
Wind: NW 8 mph , 13 km/h
Temperature: 72°F , 22°C
Dew Point: 63°F , 17°C
Humidity: 73%
Barometer: 29.73 inHg , 1006.8 hPa
Clouds: Clear
Visibility: 10 miles , 16 km
2021/07/30 10:53 KFRG 301053Z 32007KT 10SM CLR 22/17 A2973 RMK AO2 SLP067 T02170172
KISP - , , USA
Distance from station: ESE 14mi, 23km
Updated: 07/30/2021 6:56am
Few Clouds
Few Clouds
 Wind from WNW
Wind: WNW 10 mph , 17 km/h
Temperature: 72°F , 22°C
Dew Point: 68°F , 20°C
Humidity: 88%
Barometer: 29.72 inHg , 1006.4 hPa
Clouds: Few Clouds
Visibility: 10 miles , 16 km
Cloud details: Few Clouds 2000 ft
Few Clouds 25000 ft
2021/07/30 10:56 KISP 301056Z 30009KT 10SM FEW020 FEW250 22/20 A2972 RMK AO2 SLP064 T02170200
 
KBDR - , , USA
Distance from station: NNE 21mi, 34km
Updated: 07/30/2021 6:52am
Clear
Clear
 Wind from NW
Wind: NW 8 mph , 13 km/h
Temperature: 70°F , 21°C
Dew Point: 63°F , 17°C
Humidity: 78%
Barometer: 29.71 inHg , 1006.1 hPa
Clouds: Clear
Visibility: 10 miles , 16 km
2021/07/30 10:52 KBDR 301052Z 32007KT 10SM CLR 21/17 A2971 RMK AO2 SLP061 T02060172
KHPN - , , USA
Distance from station: WNW 22mi, 35km
Updated: 07/30/2021 6:56am
Clear
Clear
 Wind from NW
Wind: NW 6 mph , 9 km/h
Temperature: 66°F , 19°C
Dew Point: 63°F , 17°C
Humidity: 88%
Barometer: 29.74 inHg , 1007.1 hPa
Clouds: Clear
Visibility: 10 miles , 16 km
2021/07/30 10:56 KHPN 301056Z 31005KT 10SM CLR 19/17 A2974 RMK AO2 SLP066 T01940172
 
KHWV - , , USA
Distance from station: ESE 26mi, 41km
Updated: 07/30/2021 6:56am
Mostly cloudy
Mostly cloudy
 Wind from NW
Wind: NW 7 mph , 11 km/h
Temperature: 72°F , 22°C
Dew Point: 66°F , 19°C
Humidity: 83%
Barometer: 29.72 inHg , 1006.4 hPa
Clouds: Mostly cloudy
Visibility: 7 miles , 11 km
Cloud details: Partly cloudy 1500 ft
Mostly cloudy 2200 ft
2021/07/30 10:56 KHWV 301056Z AUTO 32006KT 7SM SCT015 BKN022 22/19 A2972 RMK AO2 SLP063 T02220194
KJFK - , , USA
Distance from station: SW 29mi, 46km
Updated: 07/30/2021 6:51am
Few Clouds
Few Clouds
 Wind from NW
Wind: NW 16 mph , 26 km/h
Temperature: 72°F , 22°C
Dew Point: 63°F , 17°C
Humidity: 73%
Barometer: 29.74 inHg , 1007.1 hPa
Clouds: Few Clouds
Visibility: 10 miles , 16 km
Cloud details: Few Clouds 25000 ft
2021/07/30 10:51 KJFK 301051Z 31014KT 10SM FEW250 22/17 A2974 RMK AO2 SLP072 T02170172
 
KLGA - , , USA
Distance from station: WSW 29mi, 47km
Updated: 07/30/2021 6:51am
Few Clouds
Few Clouds
 Wind from WNW
Wind: WNW 10 mph , 17 km/h
Temperature: 72°F , 22°C
Dew Point: 61°F , 16°C
Humidity: 69%
Barometer: 29.73 inHg , 1006.8 hPa
Clouds: Few Clouds
Visibility: 10 miles , 16 km
Cloud details: Few Clouds 1500 ft
Few Clouds 25000 ft
2021/07/30 10:51 KLGA 301051Z 30009KT 10SM FEW015 FEW250 22/16 A2973 RMK AO2 SLP069 T02220161